Terminal Aerodrome Forecast
Issued by NWS North Platte, NE

Home | Current Version | Previous Version | Text Only | Print | Product List | Glossary On
Versions: 1 2 3 4 5 6 7 8 9 10 11 12 13 14 15 16 17
149
FTUS43 KLBF 252320
TAFVTN
TAF
KVTN 252320Z 2600/2624 32008G18KT P6SM BKN100
      TEMPO 2600/2602 30025G35KT 5SM -TSRA SQ BKN050CB
     FM260300 VRB05KT P6SM SCT250
     FM261500 12005KT P6SM SCT150=

USA.gov is the U.S. government's official web portal to all federal, state and local government web resources and services.